sensor_id;sensor_type;location;lat;lon;timestamp;P1;durP1;ratioP1;P2;durP2;ratioP2
76051;SDS011;64751;48.708;9.710;2023-03-14T00:01:10;1.00;;;0.70;;
76051;SDS011;64751;48.708;9.710;2023-03-14T00:03:39;2.05;;;0.70;;
76051;SDS011;64751;48.708;9.710;2023-03-14T00:06:06;1.08;;;0.63;;
76051;SDS011;64751;48.708;9.710;2023-03-14T00:08:35;1.25;;;0.52;;
76051;SDS011;64751;48.708;9.710;2023-03-14T00:11:06;1.05;;;0.55;;
76051;SDS011;64751;48.708;9.710;2023-03-14T00:13:36;1.00;;;0.55;;
76051;SDS011;64751;48.708;9.710;2023-03-14T00:16:05;0.70;;;0.50;;
76051;SDS011;64751;48.708;9.710;2023-03-14T00:18:34;0.45;;;0.45;;
76051;SDS011;64751;48.708;9.710;2023-03-14T00:21:02;0.52;;;0.52;;
76051;SDS011;64751;48.708;9.710;2023-03-14T00:23:30;0.82;;;0.30;;
76051;SDS011;64751;48.708;9.710;2023-03-14T00:25:59;0.20;;;0.20;;
76051;SDS011;64751;48.708;9.710;2023-03-14T00:28:27;0.80;;;0.38;;
76051;SDS011;64751;48.708;9.710;2023-03-14T00:30:57;0.57;;;0.40;;
76051;SDS011;64751;48.708;9.710;2023-03-14T00:33:24;0.47;;;0.32;;
76051;SDS011;64751;48.708;9.710;2023-03-14T00:35:53;0.35;;;0.20;;
76051;SDS011;64751;48.708;9.710;2023-03-14T00:38:21;0.45;;;0.13;;
76051;SDS011;64751;48.708;9.710;2023-03-14T00:40:50;0.17;;;0.10;;
76051;SDS011;64751;48.708;9.710;2023-03-14T00:43:18;0.20;;;0.10;;
76051;SDS011;64751;48.708;9.710;2023-03-14T00:45:48;0.17;;;0.10;;
76051;SDS011;64751;48.708;9.710;2023-03-14T00:48:17;0.43;;;0.20;;
76051;SDS011;64751;48.708;9.710;2023-03-14T00:50:45;0.00;;;0.00;;
76051;SDS011;64751;48.708;9.710;2023-03-14T00:53:15;0.35;;;0.20;;
76051;SDS011;64751;48.708;9.710;2023-03-14T00:55:43;0.20;;;0.10;;
76051;SDS011;64751;48.708;9.710;2023-03-14T00:58:12;0.10;;;0.10;;
76051;SDS011;64751;48.708;9.710;2023-03-14T01:00:41;0.30;;;0.20;;
76051;SDS011;64751;48.708;9.710;2023-03-14T01:03:09;0.20;;;0.20;;
76051;SDS011;64751;48.708;9.710;2023-03-14T01:05:39;0.13;;;0.13;;
76051;SDS011;64751;48.708;9.710;2023-03-14T01:08:08;0.55;;;0.20;;
76051;SDS011;64751;48.708;9.710;2023-03-14T01:10:37;1.15;;;0.20;;
76051;SDS011;64751;48.708;9.710;2023-03-14T01:13:06;0.30;;;0.20;;
76051;SDS011;64751;48.708;9.710;2023-03-14T01:15:36;0.10;;;0.10;;
76051;SDS011;64751;48.708;9.710;2023-03-14T01:18:04;0.30;;;0.30;;
76051;SDS011;64751;48.708;9.710;2023-03-14T01:20:31;0.00;;;0.00;;
76051;SDS011;64751;48.708;9.710;2023-03-14T01:23:00;0.47;;;0.10;;
76051;SDS011;64751;48.708;9.710;2023-03-14T01:25:28;0.00;;;0.00;;
76051;SDS011;64751;48.708;9.710;2023-03-14T01:27:56;0.10;;;0.00;;
76051;SDS011;64751;48.708;9.710;2023-03-14T01:30:23;0.10;;;0.03;;
76051;SDS011;64751;48.708;9.710;2023-03-14T01:32:51;0.13;;;0.10;;
76051;SDS011;64751;48.708;9.710;2023-03-14T01:35:18;0.17;;;0.10;;
76051;SDS011;64751;48.708;9.710;2023-03-14T01:37:46;0.40;;;0.20;;
76051;SDS011;64751;48.708;9.710;2023-03-14T01:40:20;0.22;;;0.22;;
76051;SDS011;64751;48.708;9.710;2023-03-14T01:42:54;0.28;;;0.20;;
76051;SDS011;64751;48.708;9.710;2023-03-14T01:48:28;0.77;;;0.30;;
76051;SDS011;64751;48.708;9.710;2023-03-14T01:51:00;0.40;;;0.40;;
76051;SDS011;64751;48.708;9.710;2023-03-14T01:53:29;0.47;;;0.35;;
76051;SDS011;64751;48.708;9.710;2023-03-14T01:55:58;1.58;;;0.32;;
76051;SDS011;64751;48.708;9.710;2023-03-14T01:58:27;1.05;;;0.52;;
76051;SDS011;64751;48.708;9.710;2023-03-14T02:00:57;0.20;;;0.10;;
76051;SDS011;64751;48.708;9.710;2023-03-14T02:03:26;0.55;;;0.38;;
76051;SDS011;64751;48.708;9.710;2023-03-14T02:05:55;0.65;;;0.30;;
76051;SDS011;64751;48.708;9.710;2023-03-14T02:08:30;0.25;;;0.22;;
76051;SDS011;64751;48.708;9.710;2023-03-14T02:11:03;0.60;;;0.20;;
76051;SDS011;64751;48.708;9.710;2023-03-14T02:13:45;0.30;;;0.30;;
76051;SDS011;64751;48.708;9.710;2023-03-14T02:16:27;0.20;;;0.20;;
76051;SDS011;64751;48.708;9.710;2023-03-14T02:19:14;0.75;;;0.30;;
76051;SDS011;64751;48.708;9.710;2023-03-14T02:22:07;0.40;;;0.28;;
76051;SDS011;64751;48.708;9.710;2023-03-14T02:25:03;0.10;;;0.10;;
76051;SDS011;64751;48.708;9.710;2023-03-14T02:27:37;0.25;;;0.10;;
76051;SDS011;64751;48.708;9.710;2023-03-14T02:30:06;0.17;;;0.13;;
76051;SDS011;64751;48.708;9.710;2023-03-14T02:32:39;0.10;;;0.05;;
76051;SDS011;64751;48.708;9.710;2023-03-14T02:35:14;0.88;;;0.35;;
76051;SDS011;64751;48.708;9.710;2023-03-14T02:37:47;0.75;;;0.20;;
76051;SDS011;64751;48.708;9.710;2023-03-14T02:40:18;0.30;;;0.13;;
76051;SDS011;64751;48.708;9.710;2023-03-14T02:42:51;1.77;;;0.38;;
76051;SDS011;64751;48.708;9.710;2023-03-14T02:45:29;0.08;;;0.08;;
76051;SDS011;64751;48.708;9.710;2023-03-14T02:48:02;0.22;;;0.20;;
76051;SDS011;64751;48.708;9.710;2023-03-14T02:50:35;0.10;;;0.00;;
76051;SDS011;64751;48.708;9.710;2023-03-14T02:53:03;0.20;;;0.20;;
76051;SDS011;64751;48.708;9.710;2023-03-14T02:55:31;0.20;;;0.20;;
76051;SDS011;64751;48.708;9.710;2023-03-14T02:58:05;0.55;;;0.10;;
76051;SDS011;64751;48.708;9.710;2023-03-14T03:00:33;0.55;;;0.20;;
76051;SDS011;64751;48.708;9.710;2023-03-14T03:03:02;0.20;;;0.10;;
76051;SDS011;64751;48.708;9.710;2023-03-14T03:05:31;0.13;;;0.05;;
76051;SDS011;64751;48.708;9.710;2023-03-14T03:08:00;0.03;;;0.03;;
76051;SDS011;64751;48.708;9.710;2023-03-14T03:10:28;0.30;;;0.10;;
76051;SDS011;64751;48.708;9.710;2023-03-14T03:12:56;1.15;;;0.13;;
76051;SDS011;64751;48.708;9.710;2023-03-14T03:15:27;0.13;;;0.13;;
76051;SDS011;64751;48.708;9.710;2023-03-14T03:17:56;0.20;;;0.20;;
76051;SDS011;64751;48.708;9.710;2023-03-14T03:20:23;0.32;;;0.20;;
76051;SDS011;64751;48.708;9.710;2023-03-14T03:22:51;0.20;;;0.20;;
76051;SDS011;64751;48.708;9.710;2023-03-14T03:25:19;0.10;;;0.10;;
76051;SDS011;64751;48.708;9.710;2023-03-14T03:27:46;0.00;;;0.00;;
76051;SDS011;64751;48.708;9.710;2023-03-14T03:30:17;0.20;;;0.10;;
76051;SDS011;64751;48.708;9.710;2023-03-14T03:32:47;0.47;;;0.25;;
76051;SDS011;64751;48.708;9.710;2023-03-14T03:35:15;0.10;;;0.10;;
76051;SDS011;64751;48.708;9.710;2023-03-14T03:37:42;0.20;;;0.20;;
76051;SDS011;64751;48.708;9.710;2023-03-14T03:40:10;0.45;;;0.15;;
76051;SDS011;64751;48.708;9.710;2023-03-14T03:42:38;0.10;;;0.10;;
76051;SDS011;64751;48.708;9.710;2023-03-14T03:45:09;0.20;;;0.20;;
76051;SDS011;64751;48.708;9.710;2023-03-14T03:47:43;0.50;;;0.20;;
76051;SDS011;64751;48.708;9.710;2023-03-14T03:50:12;0.73;;;0.30;;
76051;SDS011;64751;48.708;9.710;2023-03-14T03:52:40;0.70;;;0.40;;
76051;SDS011;64751;48.708;9.710;2023-03-14T03:55:08;0.50;;;0.22;;
76051;SDS011;64751;48.708;9.710;2023-03-14T03:57:36;0.43;;;0.17;;
76051;SDS011;64751;48.708;9.710;2023-03-14T04:00:04;0.55;;;0.30;;
76051;SDS011;64751;48.708;9.710;2023-03-14T04:02:40;1.15;;;0.40;;
76051;SDS011;64751;48.708;9.710;2023-03-14T04:05:10;0.55;;;0.30;;
76051;SDS011;64751;48.708;9.710;2023-03-14T04:07:44;0.43;;;0.10;;
76051;SDS011;64751;48.708;9.710;2023-03-14T04:10:16;0.52;;;0.32;;
76051;SDS011;64751;48.708;9.710;2023-03-14T04:12:58;0.88;;;0.22;;
76051;SDS011;64751;48.708;9.710;2023-03-14T04:15:28;0.20;;;0.20;;
76051;SDS011;64751;48.708;9.710;2023-03-14T04:17:57;0.28;;;0.13;;
76051;SDS011;64751;48.708;9.710;2023-03-14T04:20:24;0.68;;;0.40;;
76051;SDS011;64751;48.708;9.710;2023-03-14T04:22:54;1.20;;;0.68;;
76051;SDS011;64751;48.708;9.710;2023-03-14T04:25:22;1.35;;;0.65;;
76051;SDS011;64751;48.708;9.710;2023-03-14T04:27:54;0.13;;;0.13;;
76051;SDS011;64751;48.708;9.710;2023-03-14T04:30:24;0.65;;;0.43;;
76051;SDS011;64751;48.708;9.710;2023-03-14T04:32:56;0.50;;;0.30;;
76051;SDS011;64751;48.708;9.710;2023-03-14T04:35:25;0.40;;;0.28;;
76051;SDS011;64751;48.708;9.710;2023-03-14T04:38:00;1.48;;;0.38;;
76051;SDS011;64751;48.708;9.710;2023-03-14T04:40:30;0.55;;;0.20;;
76051;SDS011;64751;48.708;9.710;2023-03-14T04:43:03;0.20;;;0.20;;
76051;SDS011;64751;48.708;9.710;2023-03-14T04:45:31;0.40;;;0.25;;
76051;SDS011;64751;48.708;9.710;2023-03-14T04:48:00;1.63;;;0.25;;
76051;SDS011;64751;48.708;9.710;2023-03-14T04:50:29;0.40;;;0.25;;
76051;SDS011;64751;48.708;9.710;2023-03-14T04:52:56;0.43;;;0.30;;
76051;SDS011;64751;48.708;9.710;2023-03-14T04:55:25;0.50;;;0.30;;
76051;SDS011;64751;48.708;9.710;2023-03-14T04:57:55;0.40;;;0.40;;
76051;SDS011;64751;48.708;9.710;2023-03-14T05:00:23;0.57;;;0.38;;
76051;SDS011;64751;48.708;9.710;2023-03-14T05:02:51;0.85;;;0.52;;
76051;SDS011;64751;48.708;9.710;2023-03-14T05:05:39;0.40;;;0.20;;
76051;SDS011;64751;48.708;9.710;2023-03-14T05:08:16;0.90;;;0.70;;
76051;SDS011;64751;48.708;9.710;2023-03-14T05:11:10;1.25;;;0.70;;
76051;SDS011;64751;48.708;9.710;2023-03-14T05:13:49;2.40;;;1.50;;
76051;SDS011;64751;48.708;9.710;2023-03-14T05:16:27;1.35;;;0.65;;
76051;SDS011;64751;48.708;9.710;2023-03-14T05:19:14;1.38;;;0.70;;
76051;SDS011;64751;48.708;9.710;2023-03-14T05:22:00;1.23;;;0.60;;
76051;SDS011;64751;48.708;9.710;2023-03-14T05:24:39;1.80;;;1.00;;
76051;SDS011;64751;48.708;9.710;2023-03-14T05:27:25;1.42;;;0.82;;
76051;SDS011;64751;48.708;9.710;2023-03-14T05:30:25;2.80;;;0.85;;
76051;SDS011;64751;48.708;9.710;2023-03-14T05:33:22;0.80;;;0.55;;
76051;SDS011;64751;48.708;9.710;2023-03-14T05:36:10;1.73;;;0.88;;
76051;SDS011;64751;48.708;9.710;2023-03-14T05:39:02;1.05;;;0.70;;
76051;SDS011;64751;48.708;9.710;2023-03-14T05:41:48;2.17;;;1.00;;
76051;SDS011;64751;48.708;9.710;2023-03-14T05:44:25;1.80;;;1.00;;
76051;SDS011;64751;48.708;9.710;2023-03-14T05:47:02;3.13;;;1.13;;
76051;SDS011;64751;48.708;9.710;2023-03-14T05:49:50;1.08;;;0.65;;
76051;SDS011;64751;48.708;9.710;2023-03-14T05:52:31;0.77;;;0.45;;
76051;SDS011;64751;48.708;9.710;2023-03-14T05:55:09;0.63;;;0.40;;
76051;SDS011;64751;48.708;9.710;2023-03-14T05:57:40;1.55;;;0.63;;
76051;SDS011;64751;48.708;9.710;2023-03-14T06:00:19;0.30;;;0.30;;
76051;SDS011;64751;48.708;9.710;2023-03-14T06:03:14;1.35;;;0.77;;
76051;SDS011;64751;48.708;9.710;2023-03-14T06:05:45;0.93;;;0.45;;
76051;SDS011;64751;48.708;9.710;2023-03-14T06:08:13;1.42;;;0.50;;
76051;SDS011;64751;48.708;9.710;2023-03-14T06:10:40;0.47;;;0.30;;
76051;SDS011;64751;48.708;9.710;2023-03-14T06:13:08;1.73;;;0.65;;
76051;SDS011;64751;48.708;9.710;2023-03-14T06:15:39;0.50;;;0.43;;
76051;SDS011;64751;48.708;9.710;2023-03-14T06:18:07;0.63;;;0.50;;
76051;SDS011;64751;48.708;9.710;2023-03-14T06:20:35;0.60;;;0.47;;
76051;SDS011;64751;48.708;9.710;2023-03-14T06:23:05;0.82;;;0.60;;
76051;SDS011;64751;48.708;9.710;2023-03-14T06:25:33;2.03;;;0.73;;
76051;SDS011;64751;48.708;9.710;2023-03-14T06:28:01;0.55;;;0.40;;
76051;SDS011;64751;48.708;9.710;2023-03-14T06:30:29;1.02;;;0.65;;
76051;SDS011;64751;48.708;9.710;2023-03-14T06:32:58;0.65;;;0.50;;
76051;SDS011;64751;48.708;9.710;2023-03-14T06:35:27;0.95;;;0.38;;
76051;SDS011;64751;48.708;9.710;2023-03-14T06:37:54;0.88;;;0.50;;
76051;SDS011;64751;48.708;9.710;2023-03-14T06:40:22;0.85;;;0.45;;
76051;SDS011;64751;48.708;9.710;2023-03-14T06:43:05;1.13;;;0.50;;
76051;SDS011;64751;48.708;9.710;2023-03-14T06:45:35;1.30;;;0.82;;
76051;SDS011;64751;48.708;9.710;2023-03-14T06:48:05;1.23;;;0.63;;
76051;SDS011;64751;48.708;9.710;2023-03-14T06:50:40;1.35;;;0.80;;
76051;SDS011;64751;48.708;9.710;2023-03-14T06:53:08;1.33;;;0.65;;
76051;SDS011;64751;48.708;9.710;2023-03-14T06:55:39;2.45;;;1.67;;
76051;SDS011;64751;48.708;9.710;2023-03-14T06:58:08;1.20;;;1.00;;
76051;SDS011;64751;48.708;9.710;2023-03-14T07:00:41;1.58;;;0.80;;
76051;SDS011;64751;48.708;9.710;2023-03-14T07:03:13;2.17;;;0.90;;
76051;SDS011;64751;48.708;9.710;2023-03-14T07:05:44;1.25;;;0.80;;
76051;SDS011;64751;48.708;9.710;2023-03-14T07:08:11;0.95;;;0.70;;
76051;SDS011;64751;48.708;9.710;2023-03-14T07:10:39;1.02;;;0.52;;
76051;SDS011;64751;48.708;9.710;2023-03-14T07:13:07;0.95;;;0.40;;
76051;SDS011;64751;48.708;9.710;2023-03-14T07:15:44;1.45;;;0.60;;
76051;SDS011;64751;48.708;9.710;2023-03-14T07:18:13;0.25;;;0.25;;
76051;SDS011;64751;48.708;9.710;2023-03-14T07:20:41;0.60;;;0.40;;
76051;SDS011;64751;48.708;9.710;2023-03-14T07:23:08;0.55;;;0.35;;
76051;SDS011;64751;48.708;9.710;2023-03-14T07:25:40;0.93;;;0.50;;
76051;SDS011;64751;48.708;9.710;2023-03-14T07:28:08;0.65;;;0.40;;
76051;SDS011;64751;48.708;9.710;2023-03-14T07:30:38;0.43;;;0.30;;
76051;SDS011;64751;48.708;9.710;2023-03-14T07:33:15;1.55;;;0.50;;
76051;SDS011;64751;48.708;9.710;2023-03-14T07:35:43;1.70;;;0.85;;
76051;SDS011;64751;48.708;9.710;2023-03-14T07:38:10;1.50;;;0.90;;
76051;SDS011;64751;48.708;9.710;2023-03-14T07:40:50;1.58;;;0.80;;
76051;SDS011;64751;48.708;9.710;2023-03-14T07:43:17;1.27;;;0.85;;
76051;SDS011;64751;48.708;9.710;2023-03-14T07:45:47;0.75;;;0.32;;
76051;SDS011;64751;48.708;9.710;2023-03-14T07:48:16;0.73;;;0.52;;
76051;SDS011;64751;48.708;9.710;2023-03-14T07:50:43;1.58;;;0.93;;
76051;SDS011;64751;48.708;9.710;2023-03-14T07:53:15;1.27;;;0.50;;
76051;SDS011;64751;48.708;9.710;2023-03-14T07:55:42;0.90;;;0.50;;
76051;SDS011;64751;48.708;9.710;2023-03-14T07:58:10;0.65;;;0.43;;
76051;SDS011;64751;48.708;9.710;2023-03-14T08:00:38;0.60;;;0.50;;
76051;SDS011;64751;48.708;9.710;2023-03-14T08:03:05;0.55;;;0.40;;
76051;SDS011;64751;48.708;9.710;2023-03-14T08:05:35;0.95;;;0.45;;
76051;SDS011;64751;48.708;9.710;2023-03-14T08:08:04;1.00;;;0.77;;
76051;SDS011;64751;48.708;9.710;2023-03-14T08:10:32;0.60;;;0.60;;
76051;SDS011;64751;48.708;9.710;2023-03-14T08:13:00;1.15;;;0.60;;
76051;SDS011;64751;48.708;9.710;2023-03-14T08:15:29;0.85;;;0.43;;
76051;SDS011;64751;48.708;9.710;2023-03-14T08:17:57;1.00;;;0.90;;
76051;SDS011;64751;48.708;9.710;2023-03-14T08:20:26;0.65;;;0.30;;
76051;SDS011;64751;48.708;9.710;2023-03-14T08:22:57;0.63;;;0.35;;
76051;SDS011;64751;48.708;9.710;2023-03-14T08:25:25;0.82;;;0.30;;
76051;SDS011;64751;48.708;9.710;2023-03-14T08:27:53;0.40;;;0.30;;
76051;SDS011;64751;48.708;9.710;2023-03-14T08:30:22;0.10;;;0.10;;
76051;SDS011;64751;48.708;9.710;2023-03-14T08:32:49;0.68;;;0.25;;
76051;SDS011;64751;48.708;9.710;2023-03-14T08:35:17;0.63;;;0.30;;
76051;SDS011;64751;48.708;9.710;2023-03-14T08:37:45;0.52;;;0.35;;
76051;SDS011;64751;48.708;9.710;2023-03-14T08:40:14;0.55;;;0.30;;
76051;SDS011;64751;48.708;9.710;2023-03-14T08:42:43;0.35;;;0.10;;
76051;SDS011;64751;48.708;9.710;2023-03-14T08:45:11;1.17;;;0.50;;
76051;SDS011;64751;48.708;9.710;2023-03-14T08:47:42;0.50;;;0.30;;
76051;SDS011;64751;48.708;9.710;2023-03-14T08:50:11;0.57;;;0.30;;
76051;SDS011;64751;48.708;9.710;2023-03-14T08:52:39;0.60;;;0.30;;
76051;SDS011;64751;48.708;9.710;2023-03-14T08:55:07;0.52;;;0.30;;
76051;SDS011;64751;48.708;9.710;2023-03-14T08:57:37;0.17;;;0.17;;
76051;SDS011;64751;48.708;9.710;2023-03-14T09:00:05;0.98;;;0.30;;
76051;SDS011;64751;48.708;9.710;2023-03-14T09:02:40;1.00;;;0.63;;
76051;SDS011;64751;48.708;9.710;2023-03-14T09:05:08;0.93;;;0.20;;
76051;SDS011;64751;48.708;9.710;2023-03-14T09:07:36;0.43;;;0.22;;
76051;SDS011;64751;48.708;9.710;2023-03-14T09:10:04;0.90;;;0.30;;
76051;SDS011;64751;48.708;9.710;2023-03-14T09:12:32;0.50;;;0.30;;
76051;SDS011;64751;48.708;9.710;2023-03-14T09:15:02;0.85;;;0.32;;
76051;SDS011;64751;48.708;9.710;2023-03-14T09:17:30;0.98;;;0.32;;
76051;SDS011;64751;48.708;9.710;2023-03-14T09:19:58;0.25;;;0.13;;
76051;SDS011;64751;48.708;9.710;2023-03-14T09:22:25;0.60;;;0.28;;
76051;SDS011;64751;48.708;9.710;2023-03-14T09:24:53;0.45;;;0.35;;
76051;SDS011;64751;48.708;9.710;2023-03-14T09:27:20;0.63;;;0.30;;
76051;SDS011;64751;48.708;9.710;2023-03-14T09:29:48;0.28;;;0.20;;
76051;SDS011;64751;48.708;9.710;2023-03-14T09:32:17;0.32;;;0.10;;
76051;SDS011;64751;48.708;9.710;2023-03-14T09:34:44;0.52;;;0.32;;
76051;SDS011;64751;48.708;9.710;2023-03-14T09:37:12;0.75;;;0.20;;
76051;SDS011;64751;48.708;9.710;2023-03-14T09:39:41;0.70;;;0.32;;
76051;SDS011;64751;48.708;9.710;2023-03-14T09:42:12;0.10;;;0.10;;
76051;SDS011;64751;48.708;9.710;2023-03-14T09:44:42;0.50;;;0.20;;
76051;SDS011;64751;48.708;9.710;2023-03-14T09:47:21;0.05;;;0.00;;
76051;SDS011;64751;48.708;9.710;2023-03-14T09:49:50;0.22;;;0.13;;
76051;SDS011;64751;48.708;9.710;2023-03-14T09:52:19;0.85;;;0.20;;
76051;SDS011;64751;48.708;9.710;2023-03-14T09:54:52;0.47;;;0.40;;
76051;SDS011;64751;48.708;9.710;2023-03-14T09:57:22;0.85;;;0.30;;
76051;SDS011;64751;48.708;9.710;2023-03-14T09:59:53;0.50;;;0.30;;
76051;SDS011;64751;48.708;9.710;2023-03-14T10:02:28;0.10;;;0.10;;
76051;SDS011;64751;48.708;9.710;2023-03-14T10:05:00;0.30;;;0.20;;
76051;SDS011;64751;48.708;9.710;2023-03-14T10:07:28;0.32;;;0.20;;
76051;SDS011;64751;48.708;9.710;2023-03-14T10:09:57;0.28;;;0.28;;
76051;SDS011;64751;48.708;9.710;2023-03-14T10:12:31;0.10;;;0.05;;
76051;SDS011;64751;48.708;9.710;2023-03-14T10:15:02;0.88;;;0.13;;
76051;SDS011;64751;48.708;9.710;2023-03-14T10:17:38;0.68;;;0.20;;
76051;SDS011;64751;48.708;9.710;2023-03-14T10:20:15;0.35;;;0.20;;
76051;SDS011;64751;48.708;9.710;2023-03-14T10:22:58;0.28;;;0.10;;
76051;SDS011;64751;48.708;9.710;2023-03-14T10:25:27;0.20;;;0.10;;
76051;SDS011;64751;48.708;9.710;2023-03-14T10:27:56;0.10;;;0.10;;
76051;SDS011;64751;48.708;9.710;2023-03-14T10:33:18;0.77;;;0.20;;
76051;SDS011;64751;48.708;9.710;2023-03-14T10:35:52;0.20;;;0.20;;
76051;SDS011;64751;48.708;9.710;2023-03-14T10:38:22;0.28;;;0.28;;
76051;SDS011;64751;48.708;9.710;2023-03-14T10:40:51;0.47;;;0.20;;
76051;SDS011;64751;48.708;9.710;2023-03-14T10:43:22;0.60;;;0.30;;
76051;SDS011;64751;48.708;9.710;2023-03-14T10:45:53;0.13;;;0.13;;
76051;SDS011;64751;48.708;9.710;2023-03-14T10:48:29;0.50;;;0.20;;
76051;SDS011;64751;48.708;9.710;2023-03-14T10:51:02;0.03;;;0.03;;
76051;SDS011;64751;48.708;9.710;2023-03-14T10:53:38;0.70;;;0.30;;
76051;SDS011;64751;48.708;9.710;2023-03-14T10:56:11;0.73;;;0.20;;
76051;SDS011;64751;48.708;9.710;2023-03-14T10:58:41;0.10;;;0.10;;
76051;SDS011;64751;48.708;9.710;2023-03-14T11:01:17;0.50;;;0.28;;
76051;SDS011;64751;48.708;9.710;2023-03-14T11:03:59;0.10;;;0.10;;
76051;SDS011;64751;48.708;9.710;2023-03-14T11:06:33;0.00;;;0.00;;
76051;SDS011;64751;48.708;9.710;2023-03-14T11:09:10;0.47;;;0.17;;
76051;SDS011;64751;48.708;9.710;2023-03-14T11:11:46;0.25;;;0.20;;
76051;SDS011;64751;48.708;9.710;2023-03-14T11:14:17;0.52;;;0.20;;
76051;SDS011;64751;48.708;9.710;2023-03-14T11:16:53;0.10;;;0.10;;
76051;SDS011;64751;48.708;9.710;2023-03-14T11:19:32;0.10;;;0.10;;
76051;SDS011;64751;48.708;9.710;2023-03-14T11:22:12;0.40;;;0.20;;
76051;SDS011;64751;48.708;9.710;2023-03-14T11:24:49;0.65;;;0.10;;
76051;SDS011;64751;48.708;9.710;2023-03-14T11:27:30;0.10;;;0.10;;
76051;SDS011;64751;48.708;9.710;2023-03-14T11:30:13;0.15;;;0.10;;
76051;SDS011;64751;48.708;9.710;2023-03-14T11:32:45;0.10;;;0.10;;
76051;SDS011;64751;48.708;9.710;2023-03-14T11:35:19;4.03;;;0.35;;
76051;SDS011;64751;48.708;9.710;2023-03-14T11:37:52;0.03;;;0.03;;
76051;SDS011;64751;48.708;9.710;2023-03-14T11:40:24;0.68;;;0.10;;
76051;SDS011;64751;48.708;9.710;2023-03-14T11:42:56;0.28;;;0.10;;
76051;SDS011;64751;48.708;9.710;2023-03-14T11:45:29;0.10;;;0.10;;
76051;SDS011;64751;48.708;9.710;2023-03-14T11:48:09;0.20;;;0.13;;
76051;SDS011;64751;48.708;9.710;2023-03-14T11:50:44;0.10;;;0.10;;
76051;SDS011;64751;48.708;9.710;2023-03-14T11:53:16;0.10;;;0.10;;
76051;SDS011;64751;48.708;9.710;2023-03-14T11:58:17;0.43;;;0.20;;
76051;SDS011;64751;48.708;9.710;2023-03-14T12:00:47;0.30;;;0.20;;
76051;SDS011;64751;48.708;9.710;2023-03-14T12:03:21;0.35;;;0.35;;
76051;SDS011;64751;48.708;9.710;2023-03-14T12:06:02;0.25;;;0.25;;
76051;SDS011;64751;48.708;9.710;2023-03-14T12:08:42;0.45;;;0.25;;
76051;SDS011;64751;48.708;9.710;2023-03-14T12:11:20;0.50;;;0.40;;
76051;SDS011;64751;48.708;9.710;2023-03-14T12:13:52;0.57;;;0.40;;
76051;SDS011;64751;48.708;9.710;2023-03-14T12:16:31;0.35;;;0.28;;
76051;SDS011;64751;48.708;9.710;2023-03-14T12:21:54;0.20;;;0.10;;
76051;SDS011;64751;48.708;9.710;2023-03-14T12:24:26;0.15;;;0.15;;
76051;SDS011;64751;48.708;9.710;2023-03-14T12:26:56;0.20;;;0.20;;
76051;SDS011;64751;48.708;9.710;2023-03-14T12:29:25;0.08;;;0.08;;
76051;SDS011;64751;48.708;9.710;2023-03-14T12:34:48;0.15;;;0.10;;
76051;SDS011;64751;48.708;9.710;2023-03-14T12:37:23;0.63;;;0.10;;
76051;SDS011;64751;48.708;9.710;2023-03-14T12:40:05;0.20;;;0.13;;
76051;SDS011;64751;48.708;9.710;2023-03-14T12:42:45;0.73;;;0.25;;
76051;SDS011;64751;48.708;9.710;2023-03-14T12:45:22;0.10;;;0.10;;
76051;SDS011;64751;48.708;9.710;2023-03-14T12:47:56;0.43;;;0.25;;
76051;SDS011;64751;48.708;9.710;2023-03-14T12:50:41;0.13;;;0.13;;
76051;SDS011;64751;48.708;9.710;2023-03-14T12:59:05;0.00;;;0.00;;
76051;SDS011;64751;48.708;9.710;2023-03-14T13:01:46;0.05;;;0.05;;
76051;SDS011;64751;48.708;9.710;2023-03-14T13:04:20;0.08;;;0.08;;
76051;SDS011;64751;48.708;9.710;2023-03-14T13:06:55;0.20;;;0.15;;
76051;SDS011;64751;48.708;9.710;2023-03-14T13:09:35;0.10;;;0.10;;
76051;SDS011;64751;48.708;9.710;2023-03-14T13:12:22;0.10;;;0.10;;
76051;SDS011;64751;48.708;9.710;2023-03-14T13:14:53;0.10;;;0.10;;
76051;SDS011;64751;48.708;9.710;2023-03-14T13:17:23;0.13;;;0.13;;
76051;SDS011;64751;48.708;9.710;2023-03-14T13:19:55;0.68;;;0.25;;
76051;SDS011;64751;48.708;9.710;2023-03-14T13:22:27;0.40;;;0.20;;
76051;SDS011;64751;48.708;9.710;2023-03-14T13:24:58;0.15;;;0.15;;
76051;SDS011;64751;48.708;9.710;2023-03-14T13:27:29;0.50;;;0.22;;
76051;SDS011;64751;48.708;9.710;2023-03-14T13:30:00;0.10;;;0.10;;
76051;SDS011;64751;48.708;9.710;2023-03-14T13:32:33;0.75;;;0.50;;
76051;SDS011;64751;48.708;9.710;2023-03-14T13:35:00;0.40;;;0.40;;
76051;SDS011;64751;48.708;9.710;2023-03-14T13:37:28;0.60;;;0.30;;
76051;SDS011;64751;48.708;9.710;2023-03-14T13:39:56;0.68;;;0.30;;
76051;SDS011;64751;48.708;9.710;2023-03-14T13:42:25;0.68;;;0.40;;
76051;SDS011;64751;48.708;9.710;2023-03-14T13:44:56;0.52;;;0.30;;
76051;SDS011;64751;48.708;9.710;2023-03-14T13:47:24;0.45;;;0.38;;
76051;SDS011;64751;48.708;9.710;2023-03-14T13:49:53;0.65;;;0.30;;
76051;SDS011;64751;48.708;9.710;2023-03-14T13:52:22;0.08;;;0.08;;
76051;SDS011;64751;48.708;9.710;2023-03-14T13:54:52;2.45;;;0.22;;
76051;SDS011;64751;48.708;9.710;2023-03-14T13:57:20;0.40;;;0.32;;
76051;SDS011;64751;48.708;9.710;2023-03-14T14:00:00;0.30;;;0.25;;
76051;SDS011;64751;48.708;9.710;2023-03-14T14:02:32;0.73;;;0.50;;
76051;SDS011;64751;48.708;9.710;2023-03-14T14:05:01;2.15;;;0.68;;
76051;SDS011;64751;48.708;9.710;2023-03-14T14:07:30;0.47;;;0.20;;
76051;SDS011;64751;48.708;9.710;2023-03-14T14:09:58;0.77;;;0.30;;
76051;SDS011;64751;48.708;9.710;2023-03-14T14:12:28;0.88;;;0.30;;
76051;SDS011;64751;48.708;9.710;2023-03-14T14:15:01;1.75;;;0.38;;
76051;SDS011;64751;48.708;9.710;2023-03-14T14:17:32;0.82;;;0.40;;
76051;SDS011;64751;48.708;9.710;2023-03-14T14:20:06;0.50;;;0.40;;
76051;SDS011;64751;48.708;9.710;2023-03-14T14:22:44;0.38;;;0.22;;
76051;SDS011;64751;48.708;9.710;2023-03-14T14:25:12;0.40;;;0.25;;
76051;SDS011;64751;48.708;9.710;2023-03-14T14:27:42;1.17;;;0.45;;
76051;SDS011;64751;48.708;9.710;2023-03-14T14:30:27;2.65;;;0.50;;
76051;SDS011;64751;48.708;9.710;2023-03-14T14:33:17;0.43;;;0.40;;
76051;SDS011;64751;48.708;9.710;2023-03-14T14:35:50;0.98;;;0.63;;
76051;SDS011;64751;48.708;9.710;2023-03-14T14:38:20;0.20;;;0.20;;
76051;SDS011;64751;48.708;9.710;2023-03-14T14:40:49;1.65;;;0.43;;
76051;SDS011;64751;48.708;9.710;2023-03-14T14:43:19;1.75;;;0.45;;
76051;SDS011;64751;48.708;9.710;2023-03-14T14:45:51;0.45;;;0.38;;
76051;SDS011;64751;48.708;9.710;2023-03-14T14:48:21;0.43;;;0.32;;
76051;SDS011;64751;48.708;9.710;2023-03-14T14:51:00;1.50;;;0.30;;
76051;SDS011;64751;48.708;9.710;2023-03-14T14:53:29;0.88;;;0.50;;
76051;SDS011;64751;48.708;9.710;2023-03-14T14:55:59;0.38;;;0.13;;
76051;SDS011;64751;48.708;9.710;2023-03-14T14:58:34;0.70;;;0.30;;
76051;SDS011;64751;48.708;9.710;2023-03-14T15:01:07;0.25;;;0.20;;
76051;SDS011;64751;48.708;9.710;2023-03-14T15:03:39;0.10;;;0.10;;
76051;SDS011;64751;48.708;9.710;2023-03-14T15:06:09;0.65;;;0.43;;
76051;SDS011;64751;48.708;9.710;2023-03-14T15:08:39;0.25;;;0.13;;
76051;SDS011;64751;48.708;9.710;2023-03-14T15:11:08;0.75;;;0.30;;
76051;SDS011;64751;48.708;9.710;2023-03-14T15:13:42;0.77;;;0.52;;
76051;SDS011;64751;48.708;9.710;2023-03-14T15:16:12;2.22;;;0.50;;
76051;SDS011;64751;48.708;9.710;2023-03-14T15:21:10;0.82;;;0.38;;
76051;SDS011;64751;48.708;9.710;2023-03-14T15:23:38;0.95;;;0.57;;
76051;SDS011;64751;48.708;9.710;2023-03-14T15:26:08;0.50;;;0.30;;
76051;SDS011;64751;48.708;9.710;2023-03-14T15:28:40;0.82;;;0.50;;
76051;SDS011;64751;48.708;9.710;2023-03-14T15:31:08;1.15;;;0.50;;
76051;SDS011;64751;48.708;9.710;2023-03-14T15:33:39;0.57;;;0.30;;
76051;SDS011;64751;48.708;9.710;2023-03-14T15:36:10;0.20;;;0.20;;
76051;SDS011;64751;48.708;9.710;2023-03-14T15:38:47;0.85;;;0.40;;